Time;durP1;ratioP1;P1;durP2;ratioP2;P2;SDS_P1;SDS_P2;PMS_P1;PMS_P2;Temp;Humidity;BMP_temperature;BMP_pressure;BME280_temperature;BME280_humidity;BME280_pressure;Samples;Min_cycle;Max_cycle;Signal;HPM_P1;HPM_P2
2022/06/24 04:57:02;;;;;;;;;6.00;4.33;;;;;23.01;57.54;100538.78;5054505;28;45519;-87
2022/06/24 04:59:27;;;;;;;;;5.00;5.00;;;;;23.07;57.71;100533.69;5043653;28;45538;-81
2022/06/24 05:01:53;;;;;;;;;6.00;5.00;;;;;23.20;57.26;100533.16;5047604;28;45869;-82
2022/06/24 05:04:19;;;;;;;;;5.00;4.67;;;;;23.37;57.77;100534.88;5044502;28;45842;-84
2022/06/24 05:06:44;;;;;;;;;6.67;5.00;;;;;23.59;56.89;100529.75;5049641;28;57893;-85
2022/06/24 05:09:09;;;;;;;;;4.33;4.33;;;;;23.80;56.90;100528.31;5049678;27;45462;-84
2022/06/24 05:11:35;;;;;;;;;5.00;5.00;;;;;23.94;56.80;100516.72;5043891;28;56038;-84
2022/06/24 05:14:00;;;;;;;;;5.33;4.00;;;;;24.21;56.03;100533.56;5042001;28;45640;-80
2022/06/24 05:16:25;;;;;;;;;4.00;4.00;;;;;24.43;55.65;100530.19;5044301;28;45700;-80
2022/06/24 05:18:51;;;;;;;;;6.00;6.00;;;;;24.65;55.04;100535.81;5045068;28;45558;-80
2022/06/24 05:21:16;;;;;;;;;6.00;6.00;;;;;24.85;54.75;100534.34;5048730;28;53608;-82
2022/06/24 05:23:41;;;;;;;;;7.33;7.00;;;;;25.05;54.67;100536.53;5058762;28;45623;-82
2022/06/24 05:26:07;;;;;;;;;4.00;4.00;;;;;25.21;53.95;100537.41;5044792;28;53467;-80
2022/06/24 05:28:35;;;;;;;;;5.00;5.00;;;;;25.32;53.49;100536.97;5047848;28;45373;-81
2022/06/24 05:31:00;;;;;;;;;5.00;5.00;;;;;25.44;53.51;100534.63;5043609;28;45552;-80
2022/06/24 05:33:26;;;;;;;;;4.33;4.33;;;;;25.59;52.71;100537.38;5045154;28;45689;-75
2022/06/24 05:35:55;;;;;;;;;5.33;5.33;;;;;25.72;52.99;100534.00;5042054;28;45471;-77
2022/06/24 05:38:21;;;;;;;;;4.33;4.00;;;;;25.85;52.13;100544.22;5041055;28;45787;-78
2022/06/24 05:40:48;;;;;;;;;4.33;4.33;;;;;25.94;52.05;100534.06;5044778;28;45657;-84
2022/06/24 05:43:14;;;;;;;;;4.00;4.00;;;;;26.03;51.60;100535.66;5047385;28;45680;-77
2022/06/24 05:45:39;;;;;;;;;4.00;4.00;;;;;26.10;51.61;100540.31;5044078;28;45416;-73
2022/06/24 05:48:05;;;;;;;;;5.00;5.00;;;;;26.15;51.82;100537.84;5045097;28;46555;-75
2022/06/24 05:50:30;;;;;;;;;4.00;4.00;;;;;26.18;51.51;100534.78;5046301;28;45432;-75
2022/06/24 05:55:39;;;;;;;;;5.33;5.33;;;;;26.27;50.91;100539.09;5044310;28;45572;-74
2022/06/24 05:58:04;;;;;;;;;6.00;4.67;;;;;26.30;50.85;100538.72;5046495;28;51972;-74
2022/06/24 06:00:31;;;;;;;;;4.33;4.33;;;;;26.35;50.92;100545.47;5043182;28;45581;-79
2022/06/24 06:02:56;;;;;;;;;3.00;3.00;;;;;26.36;51.04;100544.41;5037150;28;45645;-81
2022/06/24 06:05:21;;;;;;;;;5.00;5.00;;;;;26.39;50.93;100547.59;5046438;28;46115;-78
2022/06/24 06:07:47;;;;;;;;;5.67;4.00;;;;;26.40;51.08;100551.16;5033594;28;46239;-76
2022/06/24 06:10:12;;;;;;;;;5.33;5.33;;;;;26.40;50.95;100553.88;5031086;28;45709;-76
2022/06/24 06:12:37;;;;;;;;;4.33;4.00;;;;;26.43;50.56;100550.75;5028825;28;45849;-76
2022/06/24 06:15:03;;;;;;;;;5.00;5.00;;;;;26.48;50.47;100551.03;5026041;28;45486;-78
2022/06/24 06:17:28;;;;;;;;;4.00;3.00;;;;;26.56;50.17;100555.50;5028692;28;45471;-75
2022/06/24 06:19:54;;;;;;;;;4.00;4.00;;;;;26.62;49.58;100557.47;5029205;28;45434;-75
2022/06/24 06:22:19;;;;;;;;;3.00;3.00;;;;;26.73;49.22;100558.81;5029770;28;45735;-75
2022/06/24 06:24:44;;;;;;;;;6.00;4.00;;;;;26.81;49.38;100568.75;5032635;28;56599;-75
2022/06/24 06:27:10;;;;;;;;;3.67;3.67;;;;;26.92;49.18;100568.22;5030307;28;45365;-75
2022/06/24 06:29:35;;;;;;;;;3.00;3.00;;;;;27.02;48.80;100578.78;5026852;28;45496;-74
2022/06/24 06:32:00;;;;;;;;;7.00;5.67;;;;;27.09;48.50;100579.69;5032609;28;45524;-78
2022/06/24 06:34:26;;;;;;;;;6.33;5.00;;;;;27.17;48.64;100577.84;5032354;28;45362;-77
2022/06/24 06:36:51;;;;;;;;;4.00;4.00;;;;;27.20;48.41;100586.50;5028080;28;45572;-72
2022/06/24 06:39:16;;;;;;;;;3.33;3.33;;;;;27.23;48.01;100580.63;5031563;28;45414;-72
2022/06/24 06:41:46;;;;;;;;;4.67;4.67;;;;;27.22;47.94;100583.59;5031233;28;45403;-71
2022/06/24 06:44:12;;;;;;;;;4.33;4.00;;;;;27.20;47.65;100583.78;5032421;28;46290;-71
2022/06/24 06:46:37;;;;;;;;;5.33;4.00;;;;;27.19;47.28;100590.28;5032904;28;45515;-74
2022/06/24 06:49:02;;;;;;;;;3.00;3.00;;;;;27.17;47.58;100597.78;5027868;28;49477;-74
2022/06/24 06:51:28;;;;;;;;;4.00;4.00;;;;;27.16;47.39;100598.81;5034365;28;45384;-74
2022/06/24 06:53:53;;;;;;;;;5.33;4.33;;;;;27.16;47.66;100600.69;5033763;28;45445;-73
2022/06/24 06:56:18;;;;;;;;;6.00;4.33;;;;;27.15;47.20;100591.69;5032482;28;45462;-74
2022/06/24 06:58:44;;;;;;;;;4.00;4.00;;;;;27.13;47.80;100591.03;5033001;28;45418;-74
2022/06/24 07:01:09;;;;;;;;;3.00;3.00;;;;;27.12;47.17;100591.22;5032618;28;45620;-75
2022/06/24 07:03:34;;;;;;;;;4.67;4.67;;;;;27.10;46.89;100596.91;5035684;28;46015;-75
2022/06/24 07:06:00;;;;;;;;;3.67;3.67;;;;;27.06;47.75;100593.69;5031200;28;45313;-75
2022/06/24 07:08:25;;;;;;;;;3.00;3.00;;;;;27.04;47.63;100589.50;5031942;28;45679;-75
2022/06/24 07:10:50;;;;;;;;;3.00;3.00;;;;;27.01;47.35;100589.91;5029135;28;45789;-74
2022/06/24 07:13:16;;;;;;;;;3.67;3.67;;;;;26.97;47.32;100583.97;5033375;28;45780;-75
2022/06/24 07:15:41;;;;;;;;;5.00;3.67;;;;;26.95;47.15;100581.47;5033298;28;45352;-74
2022/06/24 07:18:07;;;;;;;;;4.00;2.67;;;;;26.91;47.53;100573.84;5034401;28;45320;-77
2022/06/24 07:20:33;;;;;;;;;3.00;3.00;;;;;26.93;47.29;100583.53;5030964;28;45443;-76
2022/06/24 07:22:58;;;;;;;;;4.00;4.00;;;;;26.93;47.27;100588.13;5032726;28;45709;-75
2022/06/24 07:25:24;;;;;;;;;5.00;5.00;;;;;26.91;47.96;100577.44;5029537;28;45978;-76
2022/06/24 07:27:49;;;;;;;;;4.00;4.00;;;;;26.96;47.81;100587.75;5032274;28;46417;-74
2022/06/24 07:30:15;;;;;;;;;3.67;3.67;;;;;26.97;47.39;100586.69;5033467;28;45462;-75
2022/06/24 07:32:40;;;;;;;;;4.33;4.33;;;;;26.96;47.71;100580.44;5027584;28;46296;-75
2022/06/24 07:35:06;;;;;;;;;3.00;3.00;;;;;27.00;47.91;100582.75;5032002;28;45337;-74
2022/06/24 07:37:31;;;;;;;;;4.00;4.00;;;;;27.00;47.06;100578.16;5032250;28;46337;-75
2022/06/24 07:39:56;;;;;;;;;3.67;3.67;;;;;27.04;47.05;100575.88;5031548;28;45520;-74
2022/06/24 07:42:22;;;;;;;;;5.00;5.00;;;;;27.05;46.63;100577.56;5034540;28;58247;-75
2022/06/24 07:44:47;;;;;;;;;5.00;4.00;;;;;27.06;47.24;100569.19;5030591;28;45483;-75
2022/06/24 07:47:13;;;;;;;;;4.00;4.00;;;;;27.05;46.68;100569.41;5032676;28;45662;-74
2022/06/24 07:49:39;;;;;;;;;4.67;4.67;;;;;27.04;46.62;100570.41;5031029;28;45379;-77
2022/06/24 07:52:05;;;;;;;;;3.00;3.00;;;;;27.08;46.58;100569.00;5038158;28;46298;-78
2022/06/24 07:54:31;;;;;;;;;3.00;3.00;;;;;27.08;46.32;100569.00;5029639;28;45649;-78
2022/06/24 07:56:56;;;;;;;;;3.33;3.33;;;;;27.08;46.63;100569.84;5031220;28;45639;-81
2022/06/24 07:59:25;;;;;;;;;3.00;3.00;;;;;27.13;46.97;100579.31;5024867;28;45587;-81
2022/06/24 08:01:52;;;;;;;;;4.67;4.33;;;;;27.16;46.72;100573.44;5030085;28;53087;-80
2022/06/24 08:04:18;;;;;;;;;2.33;2.33;;;;;27.16;46.86;100576.19;5030085;28;45625;-80
2022/06/24 08:06:46;;;;;;;;;4.00;4.00;;;;;27.21;46.40;100580.00;5031177;28;45857;-80
2022/06/24 08:09:14;;;;;;;;;4.00;4.00;;;;;27.23;46.46;100577.09;5028895;28;45586;-79
2022/06/24 08:11:40;;;;;;;;;4.67;4.67;;;;;27.27;46.21;100569.34;5031135;28;46060;-81
2022/06/24 08:14:06;;;;;;;;;7.33;5.00;;;;;27.29;45.96;100569.97;5027671;28;45712;-81
2022/06/24 08:16:31;;;;;;;;;4.00;4.00;;;;;27.24;45.68;100551.53;5031749;28;45689;-80
2022/06/24 08:18:56;;;;;;;;;5.00;4.00;;;;;27.35;45.11;100575.47;5024915;28;45454;-74
2022/06/24 08:21:22;;;;;;;;;4.67;4.67;;;;;27.39;45.67;100570.50;5026532;28;47051;-77
2022/06/24 08:23:48;;;;;;;;;2.33;2.33;;;;;27.41;44.85;100570.28;5028560;28;45405;-76
2022/06/24 08:26:14;;;;;;;;;4.67;4.00;;;;;27.42;45.25;100572.81;5030512;28;45440;-77
2022/06/24 08:28:39;;;;;;;;;3.67;3.67;;;;;27.43;44.52;100571.75;5031936;28;45432;-74
2022/06/24 08:31:04;;;;;;;;;5.00;4.33;;;;;27.43;45.02;100569.03;5029253;28;58881;-76
2022/06/24 08:33:30;;;;;;;;;4.00;3.33;;;;;27.44;44.00;100573.47;5024235;28;45349;-74
2022/06/24 08:35:55;;;;;;;;;3.00;3.00;;;;;27.45;44.65;100575.16;5029524;28;45812;-76
2022/06/24 08:38:20;;;;;;;;;2.33;2.33;;;;;27.35;44.88;100556.41;5031055;28;46180;-77
2022/06/24 08:40:48;;;;;;;;;2.33;2.33;;;;;27.46;44.71;100568.66;5030622;28;45394;-78
2022/06/24 08:43:15;;;;;;;;;6.00;5.00;;;;;27.47;44.66;100564.88;5028150;28;45372;-78
2022/06/24 08:45:41;;;;;;;;;3.00;3.00;;;;;27.48;44.09;100565.72;5033456;28;45540;-77
2022/06/24 08:48:10;;;;;;;;;5.00;3.67;;;;;27.50;43.99;100555.44;5031943;28;45313;-76
2022/06/24 08:50:36;;;;;;;;;5.00;4.00;;;;;27.51;44.16;100557.16;5029396;28;46336;-76
2022/06/24 08:53:10;;;;;;;;;2.00;2.00;;;;;27.52;43.65;100542.50;5032213;28;45459;-77
2022/06/24 08:55:37;;;;;;;;;3.00;3.00;;;;;27.53;43.55;100540.59;5030062;28;45439;-78
2022/06/24 08:58:11;;;;;;;;;2.67;2.67;;;;;27.55;43.73;100541.25;5031157;28;45513;-79
2022/06/24 09:00:38;;;;;;;;;2.33;2.33;;;;;27.57;43.35;100534.53;5027699;28;46959;-76
2022/06/24 09:03:05;;;;;;;;;2.33;2.00;;;;;27.61;43.86;100535.00;5029475;28;45340;-76
2022/06/24 09:05:31;;;;;;;;;2.33;2.33;;;;;27.64;43.72;100536.50;5032374;28;45418;-77
2022/06/24 09:08:49;;;;;;;;;3.67;2.33;;;;;27.67;42.67;100536.91;5060087;27;45448;-77
2022/06/24 09:11:14;;;;;;;;;2.67;2.67;;;;;27.69;43.40;100526.66;5066298;27;45589;-80
2022/06/24 09:13:48;;;;;;;;;4.33;2.00;;;;;27.72;43.39;100523.53;5067151;27;45506;-82
2022/06/24 09:16:17;;;;;;;;;1.67;1.67;;;;;27.75;43.23;100512.22;5065372;28;45427;-82
2022/06/24 09:18:50;;;;;;;;;3.67;3.67;;;;;27.78;43.47;100516.44;5067719;27;46984;-82
2022/06/24 09:21:23;;;;;;;;;3.00;3.00;;;;;27.82;43.47;100514.97;5068626;28;45438;-82
2022/06/24 09:23:54;;;;;;;;;2.00;2.00;;;;;27.85;43.53;100502.81;5063876;27;45462;-82
2022/06/24 09:26:36;;;;;;;;;2.67;2.67;;;;;27.87;42.82;100504.31;5067872;27;45438;-83
2022/06/24 09:29:05;;;;;;;;;2.00;2.00;;;;;27.91;42.78;100509.34;5059543;28;46119;-82
2022/06/24 09:31:31;;;;;;;;;2.33;2.33;;;;;27.93;42.79;100497.19;5067601;28;45416;-82
2022/06/24 09:34:05;;;;;;;;;3.33;2.00;;;;;27.94;43.55;100478.94;5065967;27;45638;-82
2022/06/24 09:36:33;;;;;;;;;2.00;2.00;;;;;27.99;42.67;100482.72;5069022;28;45280;-82
2022/06/24 09:39:03;;;;;;;;;2.00;2.00;;;;;28.01;43.26;100482.53;5066615;27;45628;-83
2022/06/24 09:41:29;;;;;;;;;3.00;3.00;;;;;27.99;42.55;100477.28;5066253;28;45391;-83
2022/06/24 09:43:59;;;;;;;;;2.00;2.00;;;;;28.04;43.29;100478.56;5067028;28;45372;-82
2022/06/24 09:46:25;;;;;;;;;2.67;2.67;;;;;28.05;42.72;100478.34;5065865;28;45485;-82
2022/06/24 09:48:53;;;;;;;;;3.00;3.00;;;;;28.06;42.92;100484.63;5067216;28;46429;-83
2022/06/24 09:51:19;;;;;;;;;2.00;2.00;;;;;28.07;43.26;100476.25;5068896;27;45451;-83
2022/06/24 09:53:45;;;;;;;;;3.67;3.67;;;;;28.08;43.07;100475.19;5067657;28;45462;-83
2022/06/24 09:56:11;;;;;;;;;2.33;2.33;;;;;28.08;42.53;100488.84;5067340;28;45703;-83
2022/06/24 09:58:38;;;;;;;;;2.33;2.33;;;;;28.09;42.54;100479.63;5067027;27;46199;-83
2022/06/24 10:01:05;;;;;;;;;4.00;3.00;;;;;28.10;42.53;100480.44;5067277;28;45719;-83
2022/06/24 10:03:32;;;;;;;;;3.67;3.00;;;;;28.10;42.52;100483.19;5066345;28;45570;-83
2022/06/24 10:06:08;;;;;;;;;1.00;1.00;;;;;28.10;42.49;100484.03;5067142;28;45416;-83
2022/06/24 10:08:35;;;;;;;;;2.00;2.00;;;;;28.09;42.95;100479.63;5076185;27;45899;-83
2022/06/24 10:11:05;;;;;;;;;3.00;3.00;;;;;28.09;42.60;100482.34;5068166;27;45686;-83
2022/06/24 10:13:34;;;;;;;;;3.00;3.00;;;;;28.12;43.01;100497.47;5087303;27;45439;-83
2022/06/24 10:16:05;;;;;;;;;4.00;4.00;;;;;28.12;42.96;100484.66;5084162;27;45407;-83
2022/06/24 10:18:37;;;;;;;;;4.00;2.00;;;;;28.14;42.74;100487.19;5084233;27;46259;-83
2022/06/24 10:21:05;;;;;;;;;2.00;2.00;;;;;28.13;42.87;100489.06;5073756;28;45487;-83
2022/06/24 10:23:45;;;;;;;;;3.67;3.67;;;;;28.15;43.13;100476.06;5072221;28;45464;-83
2022/06/24 10:26:12;;;;;;;;;3.33;3.33;;;;;28.15;43.26;100480.66;5069517;28;45538;-83
2022/06/24 10:28:59;;;;;;;;;2.33;2.00;;;;;28.14;43.09;100482.56;5071630;28;46151;-83
2022/06/24 10:34:25;;;;;;;;;4.00;3.00;;;;;28.12;43.35;100479.19;5067925;28;45844;-82
2022/06/24 10:36:58;;;;;;;;;5.67;2.67;;;;;28.12;43.47;100472.91;5066992;27;45562;-86
2022/06/24 10:39:29;;;;;;;;;2.67;2.67;;;;;28.14;43.39;100468.09;5069581;27;45819;-88
2022/06/24 10:41:59;;;;;;;;;3.00;3.00;;;;;28.18;43.35;100476.69;5071237;28;45701;-87
2022/06/24 10:44:26;;;;;;;;;4.00;4.00;;;;;28.19;42.98;100472.94;5072411;28;45516;-87
2022/06/24 10:47:04;;;;;;;;;4.00;2.00;;;;;28.19;42.78;100468.31;5070737;27;45610;-78
2022/06/24 10:49:52;;;;;;;;;4.00;4.00;;;;;28.20;42.70;100472.69;5061881;27;46352;-78
2022/06/24 10:52:45;;;;;;;;;5.00;3.00;;;;;28.22;43.41;100461.59;5071173;27;45695;-79
2022/06/24 10:55:29;;;;;;;;;3.67;3.67;;;;;28.23;43.41;100455.06;5067174;27;45471;-79
2022/06/24 10:57:59;;;;;;;;;2.33;2.33;;;;;28.22;43.11;100464.31;5065781;27;47189;-80
2022/06/24 11:00:26;;;;;;;;;2.00;2.00;;;;;28.21;42.85;100459.91;5052113;27;46258;-80
2022/06/24 11:03:13;;;;;;;;;2.67;2.67;;;;;28.22;42.80;100464.31;5049093;27;46806;-80
2022/06/24 11:05:47;;;;;;;;;2.67;2.67;;;;;28.21;43.01;100468.94;5047725;27;45554;-81
2022/06/24 11:08:13;;;;;;;;;2.00;2.00;;;;;28.23;42.90;100466.00;5049052;27;45518;-81
2022/06/24 11:10:40;;;;;;;;;3.67;3.67;;;;;28.18;43.60;100479.41;5066317;27;45909;-79
2022/06/24 11:13:06;;;;;;;;;2.33;2.33;;;;;27.90;43.98;100475.78;5072999;28;45565;-76
2022/06/24 11:15:48;;;;;;;;;3.33;3.33;;;;;27.64;43.62;100476.50;5072919;28;45562;-77
2022/06/24 11:18:17;;;;;;;;;3.00;3.00;;;;;27.41;44.36;100470.31;5071197;28;45588;-76
2022/06/24 11:20:48;;;;;;;;;5.00;3.00;;;;;27.23;45.20;100468.09;5073186;28;46178;-77
2022/06/24 11:23:15;;;;;;;;;3.00;3.00;;;;;27.14;44.71;100469.31;5072563;28;45499;-76
2022/06/24 11:25:47;;;;;;;;;2.33;2.33;;;;;27.07;45.43;100477.44;5070713;27;45625;-77
2022/06/24 11:28:20;;;;;;;;;3.33;3.00;;;;;27.01;45.78;100473.63;5053298;28;48176;-78
2022/06/24 11:30:45;;;;;;;;;3.00;3.00;;;;;26.99;45.91;100477.56;5065896;28;46318;-76
2022/06/24 11:33:11;;;;;;;;;4.00;4.00;;;;;26.94;45.44;100489.91;5073338;27;45415;-75
2022/06/24 11:35:37;;;;;;;;;3.00;2.00;;;;;26.88;45.73;100476.19;5072870;28;45963;-75
2022/06/24 11:38:06;;;;;;;;;3.33;3.33;;;;;26.81;45.86;100470.72;5066801;28;54333;-76
2022/06/24 11:40:32;;;;;;;;;4.00;4.00;;;;;26.75;46.40;100472.34;5072899;28;45637;-76
2022/06/24 11:43:03;;;;;;;;;3.00;3.00;;;;;26.74;46.13;100478.00;5073496;28;45525;-77
2022/06/24 11:45:39;;;;;;;;;3.67;3.00;;;;;26.71;46.83;100471.06;5074407;28;45635;-76
2022/06/24 11:48:06;;;;;;;;;3.33;3.33;;;;;26.68;46.48;100485.06;5071336;28;45466;-75
2022/06/24 11:50:36;;;;;;;;;3.00;3.00;;;;;26.66;46.75;100477.09;5072477;28;45473;-75
2022/06/24 11:53:03;;;;;;;;;3.00;3.00;;;;;26.63;46.66;100463.88;5070066;27;45625;-76
2022/06/24 11:55:37;;;;;;;;;4.00;4.00;;;;;26.62;46.81;100462.19;5072218;27;45548;-75
2022/06/24 11:58:05;;;;;;;;;3.33;2.33;;;;;26.62;46.89;100469.50;5071481;28;45447;-75
2022/06/24 12:00:34;;;;;;;;;2.00;2.00;;;;;26.61;46.90;100467.84;5070751;28;46398;-77
2022/06/24 12:03:01;;;;;;;;;2.67;2.67;;;;;26.58;47.22;100464.44;5068856;28;45505;-78
2022/06/24 12:05:29;;;;;;;;;2.00;2.00;;;;;26.57;47.47;100451.06;5070534;28;45521;-79
2022/06/24 12:07:55;;;;;;;;;2.33;2.33;;;;;26.59;47.33;100459.88;5073543;28;45404;-78
2022/06/24 12:10:21;;;;;;;;;2.00;2.00;;;;;26.60;46.68;100449.81;5070873;28;46244;-78
2022/06/24 12:12:55;;;;;;;;;2.00;2.00;;;;;26.61;47.17;100448.78;5071083;28;45682;-77
2022/06/24 12:15:35;;;;;;;;;2.67;2.00;;;;;26.61;47.06;100457.81;5072962;28;45493;-77
2022/06/24 12:18:01;;;;;;;;;2.00;2.00;;;;;26.61;47.38;100449.63;5072056;28;45517;-77
2022/06/24 12:20:29;;;;;;;;;2.00;2.00;;;;;26.63;47.34;100452.13;5087210;27;47996;-76
2022/06/24 12:23:45;;;;;;;;;2.00;2.00;;;;;26.64;47.05;100462.00;5068794;27;45490;-77
2022/06/24 12:26:19;;;;;;;;;3.33;3.00;;;;;26.64;46.68;100457.38;4986238;28;45592;-79
2022/06/24 12:28:46;;;;;;;;;2.00;2.00;;;;;26.65;47.37;100447.34;4990945;28;45600;-76
2022/06/24 12:31:12;;;;;;;;;2.00;2.00;;;;;26.65;46.79;100447.34;4986968;28;48385;-79
2022/06/24 12:33:40;;;;;;;;;3.33;2.33;;;;;26.63;47.07;100444.81;4989608;28;45697;-79
2022/06/24 12:36:09;;;;;;;;;2.00;2.00;;;;;26.61;47.18;100436.03;4984370;28;45805;-78
2022/06/24 12:38:36;;;;;;;;;2.00;2.00;;;;;26.57;47.32;100434.72;4988589;28;45654;-78
2022/06/24 12:41:13;;;;;;;;;2.67;2.67;;;;;26.57;47.12;100423.84;4972659;28;47441;-76
2022/06/24 12:43:54;;;;;;;;;3.00;2.00;;;;;26.55;47.30;100428.63;4990153;28;45810;-78
2022/06/24 12:46:22;;;;;;;;;2.33;1.33;;;;;26.54;47.39;100429.66;4988595;28;45414;-78
2022/06/24 12:51:37;;;;;;;;;2.00;2.00;;;;;26.53;47.40;100428.81;4990897;28;45570;-79
2022/06/24 12:54:02;;;;;;;;;3.00;3.00;;;;;26.57;47.42;100441.00;4989596;28;45742;-81
2022/06/24 12:56:30;;;;;;;;;2.00;2.00;;;;;26.60;46.96;100422.59;4987218;28;45642;-81
2022/06/24 12:58:55;;;;;;;;;3.33;2.00;;;;;26.63;46.95;100422.19;4988912;28;45569;-84
2022/06/24 13:01:20;;;;;;;;;1.33;1.33;;;;;26.65;47.61;100417.41;5022462;28;56453;-80
2022/06/24 13:03:46;;;;;;;;;2.67;2.67;;;;;26.68;47.28;100441.50;5072921;28;45660;-79
2022/06/24 13:06:11;;;;;;;;;2.00;2.00;;;;;26.65;47.11;100456.34;5072155;28;45460;-74
2022/06/24 13:08:36;;;;;;;;;2.00;2.00;;;;;26.65;46.99;100463.69;5066031;28;45599;-78
2022/06/24 13:11:02;;;;;;;;;2.00;2.00;;;;;26.64;46.87;100468.28;5062192;27;46184;-80
2022/06/24 13:13:28;;;;;;;;;2.00;2.00;;;;;26.63;47.37;100466.59;5073291;27;45424;-78
2022/06/24 13:15:53;;;;;;;;;2.00;2.00;;;;;26.61;47.06;100470.56;5068755;28;45463;-78
2022/06/24 13:18:20;;;;;;;;;3.00;3.00;;;;;26.58;47.17;100461.72;5068876;28;45580;-80
2022/06/24 13:20:45;;;;;;;;;2.00;2.00;;;;;26.61;46.99;100468.69;5071000;28;46025;-77
2022/06/24 13:23:11;;;;;;;;;1.00;0.00;;;;;26.60;47.47;100458.81;5071519;28;45836;-78
2022/06/24 13:25:36;;;;;;;;;2.00;2.00;;;;;26.63;47.11;100461.16;5070442;28;48479;-79
2022/06/24 13:28:03;;;;;;;;;2.00;2.00;;;;;26.65;47.70;100461.78;5068422;28;45365;-77
2022/06/24 13:30:28;;;;;;;;;2.67;2.67;;;;;26.68;47.08;100468.72;5072718;28;46979;-80
2022/06/24 13:32:54;;;;;;;;;3.00;3.00;;;;;26.71;47.94;100465.63;5060872;27;45509;-81
2022/06/24 13:35:19;;;;;;;;;2.67;2.67;;;;;26.75;47.92;100460.59;5065388;28;48534;-86
2022/06/24 13:37:44;;;;;;;;;2.00;2.00;;;;;26.74;47.74;100459.78;5069196;28;45444;-85
2022/06/24 13:40:10;;;;;;;;;2.00;2.00;;;;;26.79;47.57;100468.19;5069644;27;50166;-80
2022/06/24 13:42:36;;;;;;;;;2.67;2.67;;;;;26.83;47.88;100463.19;5052575;28;45634;-81
2022/06/24 13:45:02;;;;;;;;;3.00;3.00;;;;;26.82;47.12;100466.97;5070238;27;51662;-79
2022/06/24 13:47:28;;;;;;;;;3.00;2.00;;;;;26.83;47.70;100463.19;5066213;28;45407;-80
2022/06/24 13:49:58;;;;;;;;;2.00;2.00;;;;;26.83;47.47;100464.06;5070615;28;45494;-80
2022/06/24 13:52:24;;;;;;;;;2.00;2.00;;;;;26.82;47.33;100461.53;5070681;28;45626;-80
2022/06/24 13:54:49;;;;;;;;;2.00;2.00;;;;;26.86;47.86;100468.25;5069631;28;45416;-80
2022/06/24 13:57:15;;;;;;;;;2.00;2.00;;;;;26.88;47.31;100460.72;5067469;28;45358;-79
